Latest Weather Observations for Lord Howe Island

IDN60801

Issued at 9:32 pm EDT Thursday 30 March 2017 (issued every 30 minutes, with the page automatically refreshed every 10 minutes)

About weather observations | Map of weather stations | Latest weather observations for NSW | Other Formats
Station Details ID: 200839 Name: LORD HOWE ISLAND AERO Lat: -31.54 Lon: 159.08 Height: 5.0 m
Data from the previous 72 hours. | See also: Recent months at Lord Howe Island
Date/Time
EDT
Temp
°C
App
Temp
°C
Dew
Point
°C
Rel
Hum
%
Delta-T
°C
Wind Press
QNH
hPa
Press
MSL
hPa
Rain since
9am
mm
Dir  Spd
km/h
Gust
km/h
Spd
kts
Gust
kts
30/09:30pm 23.3 20.0 17.1 68 3.8 NE 30 37 16 20 1013.8 - 0.0
30/09:00pm 23.0 20.5 18.1 74 3.1 NE 28 35 15 19 1013.7 1013.7 0.0
30/08:30pm 23.1 20.1 17.8 72 3.3 NE 30 37 16 20 1013.7 - 0.0
30/08:00pm 23.2 20.1 17.4 70 3.6 NE 30 37 16 20 1013.7 - 0.0
30/07:30pm 23.2 20.0 17.2 69 3.7 NE 30 37 16 20 1013.5 - 0.0
30/07:00pm 23.2 21.0 17.0 68 3.8 NNE 24 32 13 17 1013.7 - 0.0
30/06:30pm 23.2 20.0 16.3 65 4.2 NNE 28 33 15 18 1013.7 - 0.0
30/06:00pm 23.2 20.0 16.3 65 4.2 NE 28 35 15 19 1013.4 1013.4 0.0
30/05:30pm 23.3 20.5 16.4 65 4.2 NNE 26 33 14 18 1013.4 - 0.0
30/05:00pm 23.9 21.4 16.2 62 4.7 NNE 24 43 13 23 1013.5 - 0.0
30/04:30pm 23.6 20.5 15.6 61 4.8 NNE 26 41 14 22 1013.3 - 0.0
30/04:00pm 24.1 21.4 16.6 63 4.6 NNE 26 33 14 18 1013.5 - 0.0
30/03:30pm 24.4 20.7 15.9 59 5.2 NNE 30 37 16 20 1013.3 - 0.0
30/03:00pm 24.1 21.4 16.6 63 4.6 NNE 26 33 14 18 1013.5 1013.5 0.0
30/02:30pm 24.5 22.2 16.7 61 4.8 NNE 24 39 13 21 1014.0 - 0.0
30/02:00pm 24.6 22.4 16.8 62 4.8 NNE 24 37 13 20 1014.3 - 0.0
30/01:30pm 24.5 21.9 16.0 59 5.2 NNE 24 37 13 20 1015.1 - 0.0
30/01:00pm 24.0 21.6 16.3 62 4.7 NNE 24 35 13 19 1015.7 - 0.0
30/12:30pm 24.5 21.6 16.0 59 5.2 NNE 26 46 14 25 1016.0 - 0.0
30/12:22pm 24.7 21.5 16.2 59 5.2 NNE 28 46 15 25 1015.8 - 0.0
30/12:00pm 24.8 21.8 16.8 61 4.9 NNE 28 35 15 19 1016.1 1016.1 0.0
30/11:30am 24.1 20.4 16.1 61 4.9 NNE 30 39 16 21 1016.7 - 0.0
30/11:00am 24.2 20.9 17.0 64 4.4 NNE 30 37 16 20 1016.8 - 0.0
30/10:30am 24.2 20.4 16.7 63 4.6 NNE 32 37 17 20 1016.8 - 0.0
30/10:00am 24.2 20.5 17.0 64 4.4 NE 32 37 17 20 1016.8 - 0.0
30/09:30am 23.7 20.6 16.5 64 4.4 NNE 28 35 15 19 1016.8 - 0.0
30/09:00am 23.3 20.0 16.1 64 4.4 NNE 28 35 15 19 1017.1 1017.1 0.0
30/08:30am 23.1 20.0 16.6 67 4.0 NNE 28 33 15 18 1017.1 - 0.0
30/08:00am 23.2 20.3 17.0 68 3.8 NE 28 35 15 19 1016.8 - 0.0
30/07:30am 22.7 19.9 16.3 67 3.9 NNE 26 32 14 17 1016.5 - 0.0
30/07:00am 22.0 18.9 16.5 71 3.3 NE 28 37 15 20 1016.2 - 0.0
30/06:30am 21.9 18.6 16.0 69 3.6 NE 28 35 15 19 1016.2 - 0.0
30/06:00am 21.8 18.8 16.7 73 3.1 NE 28 33 15 18 1016.1 1016.1 0.0
30/05:30am 21.8 18.7 16.5 72 3.2 NE 28 32 15 17 1016.0 - 0.0
30/05:00am 21.9 19.2 16.6 72 3.2 NE 26 32 14 17 1015.9 - 0.0
30/04:30am 21.8 19.5 16.7 73 3.1 NE 24 32 13 17 1015.7 - 0.0
30/04:00am 21.9 19.6 16.6 72 3.2 NE 24 30 13 16 1015.7 - 0.0
30/03:30am 21.7 19.8 16.6 73 3.1 NE 22 30 12 16 1015.7 - 0.0
30/03:00am 21.6 20.0 16.6 73 3.0 NNE 20 28 11 15 1015.9 1015.9 0.0
30/02:30am 21.7 20.1 16.6 73 3.1 NNE 20 26 11 14 1016.2 - 0.0
30/02:00am 21.7 19.9 16.0 70 3.4 NNE 20 24 11 13 1016.5 - 0.0
30/01:30am 21.6 19.8 15.9 70 3.4 NNE 20 26 11 14 1017.0 - 0.0
30/01:00am 21.5 19.8 16.2 72 3.2 NE 20 24 11 13 1017.3 - 0.0
30/12:30am 21.6 20.0 16.1 71 3.3 NNE 19 22 10 12 1017.6 - 0.0
30/12:00am 21.7 20.2 16.2 71 3.3 NNE 19 24 10 13 1017.8 1017.8 0.0
 
Date/Time
EDT
Temp
°C
App
Temp
°C
Dew
Point
°C
Rel
Hum
%
Delta-T
°C
Wind Press
QNH
hPa
Press
MSL
hPa
Rain since
9am
mm
Dir  Spd
km/h
Gust
km/h
Spd
kts
Gust
kts
29/11:30pm 21.7 20.2 16.4 72 3.2 NNE 19 24 10 13 1017.9 - 0.0
29/11:00pm 21.7 20.6 16.4 72 3.2 NNE 17 22 9 12 1018.1 - 0.0
29/10:30pm 21.6 20.3 15.9 70 3.4 NNE 17 22 9 12 1017.9 - 0.0
29/10:00pm 21.6 20.3 15.9 70 3.4 NNE 17 20 9 11 1018.1 - 0.0
29/09:30pm 21.6 20.3 15.9 70 3.4 NNE 17 20 9 11 1018.0 - 0.0
29/09:00pm 21.7 20.4 15.8 69 3.5 NNE 17 20 9 11 1018.0 1018.0 0.0
29/08:30pm 21.8 20.8 15.6 68 3.7 NNE 15 20 8 11 1017.7 - 0.0
29/08:00pm 21.6 20.3 15.7 69 3.5 NNE 17 20 9 11 1017.4 - 0.0
29/07:30pm 21.4 20.1 15.7 70 3.4 NE 17 19 9 10 1017.0 - 0.0
29/07:00pm 21.5 20.2 15.8 70 3.4 NE 17 20 9 11 1016.7 - 0.0
29/06:30pm 21.7 20.9 16.0 70 3.4 NE 15 17 8 9 1016.5 - 0.0
29/06:00pm 21.9 21.1 16.0 69 3.5 NE 15 17 8 9 1016.3 1016.3 0.0
29/05:30pm 22.4 21.9 16.0 67 3.9 NE 13 19 7 10 1016.2 - 0.0
29/05:00pm 23.0 22.6 16.1 65 4.2 NE 13 17 7 9 1016.0 - 0.0
29/04:30pm 23.3 22.5 16.1 64 4.4 ENE 15 19 8 10 1015.8 - 0.0
29/04:00pm 23.7 23.1 16.7 65 4.3 ENE 15 19 8 10 1015.8 - 0.0
29/03:30pm 23.5 22.8 16.3 64 4.4 NE 15 19 8 10 1015.8 - 0.0
29/03:00pm 23.9 23.8 16.9 65 4.3 NE 13 17 7 9 1016.0 1016.0 0.0
29/02:30pm 23.8 23.6 16.6 64 4.4 NE 13 19 7 10 1016.2 - 0.0
29/02:00pm 23.8 23.4 16.3 63 4.6 NE 13 17 7 9 1016.4 - 0.0
29/01:30pm 24.1 23.6 16.9 64 4.4 ENE 15 17 8 9 1016.5 - 0.0
29/01:00pm 23.9 23.7 16.7 64 4.4 NE 13 17 7 9 1017.0 - 0.0
29/12:30pm 23.8 23.9 16.6 64 4.4 NE 11 13 6 7 1017.3 - 0.0
29/12:00pm 23.8 23.7 16.1 62 4.7 NE 11 15 6 8 1017.5 1017.5 0.0
29/11:30am 23.4 22.8 15.7 62 4.6 NE 13 15 7 8 1017.7 - 0.0
29/11:00am 23.7 24.1 16.2 63 4.6 NE 9 13 5 7 1017.9 - 0.0
29/10:30am 23.5 23.6 15.5 60 4.8 NE 9 13 5 7 1017.8 - 0.0
29/10:00am 23.5 23.7 15.8 62 4.6 NE 9 15 5 8 1017.8 - 0.0
29/09:30am 23.3 23.6 15.1 60 4.9 NE 7 11 4 6 1017.9 - 0.0
29/09:00am 23.4 23.6 15.7 62 4.6 NNE 9 11 5 6 1017.8 1017.8 0.0
29/08:30am 22.7 22.5 15.8 65 4.2 NE 11 13 6 7 1017.6 - 0.0
29/08:00am 22.3 22.1 15.6 66 4.0 NE 11 15 6 8 1017.3 - 0.0
29/07:30am 21.7 21.0 15.5 68 3.7 ENE 13 15 7 8 1017.0 - 0.0
29/07:00am 21.2 21.0 15.7 71 3.3 ENE 11 13 6 7 1016.8 - 0.0
29/06:30am 20.7 20.9 15.7 73 3.0 E 9 13 5 7 1016.6 - 0.0
29/06:00am 20.8 20.9 15.6 72 3.1 E 9 15 5 8 1016.3 1016.3 0.0
29/05:30am 20.7 21.3 15.7 73 3.0 E 7 13 4 7 1016.2 - 0.0
29/05:00am 20.6 21.2 15.8 74 2.9 ESE 7 11 4 6 1016.1 - 0.0
29/04:30am 20.0 20.4 15.4 75 2.7 SE 7 11 4 6 1015.8 - 0.0
29/04:00am 20.6 20.2 15.2 71 3.2 ESE 11 15 6 8 1015.6 - 0.0
29/03:30am 20.3 20.6 15.1 72 3.1 SE 7 11 4 6 1015.8 - 0.0
29/03:00am 20.0 20.3 15.0 73 2.9 SE 7 11 4 6 1015.8 1015.8 0.0
29/02:30am 20.1 20.1 15.1 73 2.9 ESE 9 11 5 6 1015.9 - 0.0
29/02:00am 20.0 20.0 15.2 74 2.8 ESE 9 13 5 7 1016.1 - 0.0
29/01:30am 19.9 20.1 15.7 77 2.5 E 9 13 5 7 1016.3 - 0.0
29/01:00am 19.9 20.0 15.5 76 2.6 E 9 13 5 7 1016.5 - 0.0
29/12:30am 20.1 20.1 15.3 74 2.8 ESE 9 13 5 7 1016.4 - 0.0
29/12:00am 20.2 20.2 15.2 73 2.9 ESE 9 11 5 6 1016.7 1016.7 0.0
 
Date/Time
EDT
Temp
°C
App
Temp
°C
Dew
Point
°C
Rel
Hum
%
Delta-T
°C
Wind Press
QNH
hPa
Press
MSL
hPa
Rain since
9am
mm
Dir  Spd
km/h
Gust
km/h
Spd
kts
Gust
kts
28/11:30pm 20.3 20.3 15.3 73 3.0 ESE 9 11 5 6 1016.9 - 0.0
28/11:00pm 20.3 20.3 15.1 72 3.1 ESE 9 13 5 7 1016.9 - 0.0
28/10:30pm 20.7 21.1 15.3 71 3.2 ESE 7 11 4 6 1017.3 - 0.0
28/10:00pm 21.3 21.7 15.2 68 3.6 ESE 7 11 4 6 1017.4 - 0.0
28/09:30pm 21.2 21.6 15.3 69 3.5 SE 7 7 4 4 1017.2 - 0.0
28/09:00pm 21.0 21.3 15.1 69 3.5 ESE 7 9 4 5 1016.8 1016.8 0.0
28/08:30pm 21.0 21.3 15.1 69 3.5 ESE 7 9 4 5 1016.6 - 0.0
28/08:00pm 20.8 21.2 15.4 71 3.2 ESE 7 9 4 5 1016.5 - 0.0
28/07:30pm 20.2 20.6 15.2 73 2.9 ESE 7 9 4 5 1016.2 - 0.0
28/07:00pm 20.0 20.5 15.0 73 2.9 ESE 6 9 3 5 1015.8 - 0.0
28/06:30pm 21.0 21.3 15.1 69 3.5 ESE 7 11 4 6 1015.6 - 0.0
28/06:00pm 21.4 21.5 15.5 69 3.5 ENE 9 11 5 6 1015.4 1015.4 0.0
28/05:30pm 22.1 21.7 15.2 65 4.1 ENE 11 13 6 7 1015.2 - 0.0
28/05:00pm 22.5 22.2 15.4 64 4.2 ENE 11 15 6 8 1015.0 - 0.0
28/04:30pm 23.0 22.8 15.8 64 4.3 E 11 15 6 8 1014.9 - 0.0
28/04:00pm 23.1 22.8 15.4 62 4.6 E 11 17 6 9 1014.9 - 0.0
28/03:30pm 23.1 22.5 15.7 63 4.5 E 13 19 7 10 1015.0 - 0.0
28/03:00pm 23.3 22.4 15.9 63 4.5 ENE 15 19 8 10 1015.0 1015.0 0.0
28/02:30pm 23.8 23.8 17.1 66 4.1 E 13 19 7 10 1015.1 - 0.0
28/02:00pm 23.3 22.4 15.9 63 4.5 E 15 20 8 11 1015.3 - 0.0
28/01:30pm 23.3 23.7 15.4 61 4.7 WSW 7 9 4 5 1015.7 - 0.0
28/01:00pm 23.2 23.2 15.3 61 4.7 SW 9 15 5 8 1016.0 - 0.0
28/12:30pm 24.2 24.9 15.7 59 5.1 E 6 9 3 5 1016.4 - 0.0
28/12:00pm 23.8 23.4 16.1 62 4.7 ENE 13 19 7 10 1016.7 1016.7 0.0
28/11:30am 23.5 24.0 15.5 60 4.8 E 7 13 4 7 1016.9 - 0.0
28/11:00am 23.2 23.2 15.3 61 4.7 ENE 9 11 5 6 1016.8 - 0.0
28/10:30am 23.3 22.2 15.4 61 4.7 E 15 20 8 11 1016.6 - 0.0
28/10:00am 23.1 22.0 15.2 61 4.7 E 15 22 8 12 1016.4 - 0.0
28/09:30am 22.6 22.5 13.9 58 5.1 W 7 9 4 5 1016.3 - 0.0
28/09:00am 22.7 22.2 15.8 65 4.1 E 13 17 7 9 1016.0 1016.0 0.0
28/08:30am 22.2 21.2 15.5 66 4.0 E 15 20 8 11 1015.9 - 0.0
28/08:00am 21.5 21.3 15.6 69 3.5 ESE 11 19 6 10 1015.8 - 0.0
28/07:30am 19.4 19.5 14.4 73 2.9 ESE 7 11 4 6 1015.8 - 0.0
28/07:00am 16.8 17.8 14.4 86 1.4 SE 2 9 1 5 1015.5 - 0.0
28/06:30am 16.2 17.4 13.9 86 1.3 CALM 0 0 0 0 1015.3 - 0.0
28/06:00am 15.8 16.8 14.2 90 0.9 SSE 2 7 1 4 1015.0 1015.0 0.0
28/05:30am 15.1 16.1 13.3 89 1.0 CALM 0 0 0 0 1014.5 - 0.0
28/05:00am 15.5 16.7 13.7 89 1.0 CALM 0 0 0 0 1014.3 - 0.0
28/04:30am 16.1 16.7 14.3 89 1.0 S 4 7 2 4 1014.7 - 0.0
28/04:00am 15.2 15.6 13.6 90 0.9 S 4 9 2 5 1014.7 - 0.0
28/03:30am 15.4 16.5 13.6 89 1.0 CALM 0 0 0 0 1014.7 - 0.0
28/03:00am 15.9 17.2 14.1 89 1.0 CALM 0 0 0 0 1014.8 1014.8 0.0
28/02:30am 16.3 17.6 14.1 87 1.2 CALM 0 0 0 0 1015.0 - 0.0
28/02:00am 16.8 18.2 14.4 86 1.4 CALM 0 0 0 0 1015.0 - 0.0
28/01:30am 17.3 18.9 14.8 85 1.4 CALM 0 0 0 0 1015.2 - 0.0
28/01:00am 17.3 18.9 14.9 86 1.4 CALM 0 0 0 0 1015.6 - 0.0
28/12:30am 16.6 17.9 14.1 85 1.4 CALM 0 0 0 0 1016.0 - 0.0
28/12:00am 16.8 18.0 13.7 82 1.7 CALM 0 0 0 0 1015.9 1015.9 0.0
 
Date/Time
EDT
Temp
°C
App
Temp
°C
Dew
Point
°C
Rel
Hum
%
Delta-T
°C
Wind Press
QNH
hPa
Press
MSL
hPa
Rain since
9am
mm
Dir  Spd
km/h
Gust
km/h
Spd
kts
Gust
kts
27/11:30pm 17.9 19.2 14.0 78 2.2 CALM 0 0 0 0 1015.8 - 0.0
27/11:00pm 19.6 19.9 14.4 72 3.0 SE 6 9 3 5 1015.7 - 0.0
27/10:30pm 20.7 20.5 14.8 69 3.5 SE 9 11 5 6 1015.8 - 0.0
27/10:00pm 20.6 20.9 14.9 70 3.3 SE 7 9 4 5 1015.8 - 0.0

Other Formats:

Comma delimited format used in spreadsheet applications
http://www.bom.gov.au/fwo/IDN60801/IDN60801.94995.axf

JavaScript Object Notation format (JSON) in row-major order
http://www.bom.gov.au/fwo/IDN60801/IDN60801.94995.json